Time;durP1;ratioP1;P1;durP2;ratioP2;P2;SDS_P1;SDS_P2;PMS_P1;PMS_P2;Temp;Humidity;BMP_temperature;BMP_pressure;BME280_temperature;BME280_humidity;BME280_pressure;Samples;Min_cycle;Max_cycle;Signal;HPM_P1;HPM_P2
2023/12/22 00:01:22;;;;;;;37.60;4.70;;;;;;;10.85;85.48;100859.72;5049339;28;20521;-80
2023/12/22 00:03:49;;;;;;;35.30;4.63;;;;;;;10.86;85.91;100866.75;5049739;28;20029;-79
2023/12/22 00:06:15;;;;;;;34.30;4.80;;;;;;;10.86;85.52;100866.75;5052301;28;20320;-79
2023/12/22 00:08:40;;;;;;;45.53;5.03;;;;;;;10.88;85.04;100864.13;5052308;28;20321;-79
2023/12/22 00:11:06;;;;;;;52.73;5.43;;;;;;;10.87;85.73;100863.22;5052387;28;20021;-79
2023/12/22 00:13:33;;;;;;;44.90;5.17;;;;;;;10.90;85.49;100865.88;5052106;28;20716;-79
2023/12/22 00:15:59;;;;;;;38.70;4.00;;;;;;;10.89;85.18;100866.75;5052079;28;20116;-79
2023/12/22 00:18:24;;;;;;;45.70;4.77;;;;;;;10.88;85.71;100865.00;5051974;28;20032;-80
2023/12/22 00:20:49;;;;;;;35.70;3.90;;;;;;;10.88;85.60;100854.44;5052187;28;20036;-80
2023/12/22 00:23:15;;;;;;;38.47;4.38;;;;;;;10.88;85.45;100865.00;5051843;28;20112;-79
2023/12/22 00:25:40;;;;;;;34.57;3.83;;;;;;;10.89;85.10;100863.25;5050411;28;20025;-79
2023/12/22 00:28:06;;;;;;;38.90;3.97;;;;;;;10.89;85.42;100860.63;5051856;28;20110;-79
2023/12/22 00:30:31;;;;;;;30.53;3.47;;;;;;;10.90;85.09;100868.50;5051775;28;20032;-78
2023/12/22 00:32:56;;;;;;;31.17;4.10;;;;;;;10.93;84.95;100853.59;5051753;28;20024;-79
2023/12/22 00:35:22;;;;;;;33.37;3.93;;;;;;;10.94;85.00;100873.78;5051787;28;20031;-79
2023/12/22 00:37:47;;;;;;;40.27;5.00;;;;;;;10.94;85.21;100865.88;5051610;28;20029;-79
2023/12/22 00:40:12;;;;;;;29.73;3.80;;;;;;;10.96;84.98;100869.41;5051490;28;20055;-80
2023/12/22 00:42:38;;;;;;;34.83;4.43;;;;;;;10.95;85.49;100871.19;5051672;28;20389;-79
2023/12/22 00:45:04;;;;;;;32.53;4.07;;;;;;;10.91;85.78;100875.53;5050928;28;20025;-78
2023/12/22 00:47:29;;;;;;;31.33;3.60;;;;;;;10.92;85.83;100886.97;5051233;28;20033;-79
2023/12/22 00:49:54;;;;;;;28.67;3.50;;;;;;;10.90;85.75;100884.31;5051412;28;20021;-79
2023/12/22 00:52:20;;;;;;;35.83;3.53;;;;;;;10.88;86.48;100893.97;5051558;28;20226;-79
2023/12/22 00:54:45;;;;;;;27.13;3.07;;;;;;;10.86;86.22;100895.72;5051370;28;20083;-79
2023/12/22 00:57:11;;;;;;;28.70;3.77;;;;;;;10.83;86.84;100895.72;5051932;28;20017;-79
2023/12/22 00:59:36;;;;;;;23.80;3.47;;;;;;;10.85;86.80;100907.13;5051089;28;20416;-79
2023/12/22 01:02:02;;;;;;;35.93;4.03;;;;;;;10.84;87.03;100900.09;5051106;28;20139;-79
2023/12/22 01:04:27;;;;;;;28.00;3.67;;;;;;;10.85;87.11;100900.97;5051215;28;20021;-79
2023/12/22 01:06:53;;;;;;;32.53;3.90;;;;;;;10.83;87.06;100895.72;5051291;28;20100;-78
2023/12/22 01:09:19;;;;;;;36.67;3.50;;;;;;;10.84;87.37;100897.47;5049594;28;20397;-79
2023/12/22 01:11:45;;;;;;;30.43;3.80;;;;;;;10.83;87.10;100885.19;5051246;28;20153;-79
2023/12/22 01:14:13;;;;;;;37.63;3.83;;;;;;;10.83;87.13;100879.91;5050902;28;20027;-79
2023/12/22 01:16:38;;;;;;;31.60;4.03;;;;;;;10.83;87.36;100890.44;5050311;28;20033;-79
2023/12/22 01:19:04;;;;;;;30.00;3.35;;;;;;;10.82;87.82;100895.69;5051123;28;20024;-79
2023/12/22 01:21:29;;;;;;;32.77;3.03;;;;;;;10.79;88.04;100890.41;5050988;28;20112;-79
2023/12/22 01:23:55;;;;;;;35.53;3.80;;;;;;;10.79;87.77;100880.78;5049764;28;20057;-79
2023/12/22 01:26:20;;;;;;;26.80;3.20;;;;;;;10.81;87.67;100886.94;5050590;28;20041;-79
2023/12/22 01:28:45;;;;;;;24.03;2.80;;;;;;;10.80;87.75;100879.91;5050536;28;20060;-79
2023/12/22 01:31:11;;;;;;;23.17;2.77;;;;;;;10.77;87.98;100883.38;5051116;28;20309;-79
2023/12/22 01:33:36;;;;;;;27.70;2.53;;;;;;;10.78;88.01;100894.81;5050703;28;20389;-79
2023/12/22 01:36:02;;;;;;;30.23;2.50;;;;;;;10.76;88.41;100894.78;5050700;28;20021;-80
2023/12/22 01:38:28;;;;;;;25.63;2.65;;;;;;;10.77;88.11;100893.91;5050871;28;20027;-79
2023/12/22 01:40:53;;;;;;;21.00;2.23;;;;;;;10.77;88.46;100896.56;5050518;28;20021;-79
2023/12/22 01:43:21;;;;;;;23.13;2.40;;;;;;;10.78;88.25;100902.72;5051035;28;20029;-79
2023/12/22 01:45:48;;;;;;;26.30;3.05;;;;;;;10.75;88.50;100905.34;5049961;28;20385;-79
2023/12/22 01:48:15;;;;;;;23.92;2.42;;;;;;;10.76;88.84;100907.09;5050362;28;20050;-79
2023/12/22 01:50:40;;;;;;;23.85;2.95;;;;;;;10.77;88.70;100908.88;5050676;28;20028;-80
2023/12/22 01:53:06;;;;;;;24.37;2.30;;;;;;;10.79;88.60;100911.47;5050698;28;20025;-79
2023/12/22 01:55:32;;;;;;;24.67;2.65;;;;;;;10.80;88.35;100919.41;5050637;28;20409;-80
2023/12/22 01:57:59;;;;;;;19.65;1.77;;;;;;;10.79;88.43;100912.38;5049007;28;20108;-80
2023/12/22 02:00:25;;;;;;;17.95;2.58;;;;;;;10.80;88.79;100914.16;5049921;28;20535;-79
2023/12/22 02:02:50;;;;;;;27.20;2.30;;;;;;;10.79;88.62;100920.28;5050040;28;20112;-80
2023/12/22 02:05:16;;;;;;;21.70;2.00;;;;;;;10.80;88.62;100922.03;5050167;28;20394;-80
2023/12/22 02:07:42;;;;;;;21.83;2.17;;;;;;;10.80;88.43;100929.94;5049931;28;20283;-80
2023/12/22 02:10:08;;;;;;;15.80;2.25;;;;;;;10.80;88.92;100914.16;5048977;28;20040;-80
2023/12/22 02:12:35;;;;;;;18.53;2.23;;;;;;;10.83;89.16;100914.16;5050108;28;20028;-80
2023/12/22 02:15:01;;;;;;;13.45;1.85;;;;;;;10.81;89.00;100915.91;5049931;28;20025;-79
2023/12/22 02:17:38;;;;;;;16.85;2.00;;;;;;;10.79;89.05;100916.75;5050077;28;20400;-79
2023/12/22 02:20:04;;;;;;;13.95;1.65;;;;;;;10.79;89.41;100915.03;5049832;28;20032;-79
2023/12/22 02:22:30;;;;;;;10.70;1.40;;;;;;;10.77;89.46;100909.72;5050100;28;20032;-79
2023/12/22 02:24:55;;;;;;;16.00;1.92;;;;;;;10.77;89.27;100895.69;5048683;28;20025;-79
2023/12/22 02:27:38;;;;;;;15.10;1.73;;;;;;;10.76;89.33;100901.84;5049212;28;20071;-80
2023/12/22 02:30:16;;;;;;;15.15;1.90;;;;;;;10.74;89.91;100888.63;5049449;28;20025;-79
2023/12/22 02:32:48;;;;;;;20.43;1.80;;;;;;;10.75;89.49;100898.31;5049537;28;20041;-80
2023/12/22 02:35:21;;;;;;;11.88;1.30;;;;;;;10.74;89.90;100880.75;5049724;28;20037;-79
2023/12/22 02:37:48;;;;;;;14.63;1.45;;;;;;;10.75;89.83;100885.13;5049618;28;20040;-80
2023/12/22 02:40:14;;;;;;;13.13;1.65;;;;;;;10.77;90.06;100877.25;5049719;28;20064;-79
2023/12/22 02:42:41;;;;;;;10.80;1.10;;;;;;;10.76;89.93;100871.09;5049651;28;20396;-79
2023/12/22 02:45:13;;;;;;;11.70;1.50;;;;;;;10.77;89.73;100877.25;5048957;28;20021;-80
2023/12/22 02:47:39;;;;;;;11.57;1.65;;;;;;;10.75;89.83;100874.59;5049438;28;20044;-80
2023/12/22 02:50:05;;;;;;;13.60;1.05;;;;;;;10.78;89.80;100873.75;5049641;28;20505;-79
2023/12/22 02:52:32;;;;;;;10.10;1.15;;;;;;;10.80;89.87;100872.00;5049372;28;20423;-80
2023/12/22 02:54:58;;;;;;;6.57;1.13;;;;;;;10.82;89.73;100864.97;5049621;28;20033;-79
2023/12/22 02:57:23;;;;;;;8.85;1.20;;;;;;;10.83;89.61;100860.56;5049770;28;20075;-80
2023/12/22 02:59:49;;;;;;;10.13;0.70;;;;;;;10.84;89.41;100852.69;5048870;28;20037;-79
2023/12/22 03:02:14;;;;;;;5.80;0.65;;;;;;;10.82;89.68;100856.16;5048474;28;20453;-79
2023/12/22 03:04:40;;;;;;;5.70;0.60;;;;;;;10.84;89.51;100857.97;5049435;28;20233;-79
2023/12/22 03:07:05;;;;;;;9.63;1.00;;;;;;;10.82;89.81;100854.44;5049198;28;20534;-79
2023/12/22 03:09:31;;;;;;;6.30;0.80;;;;;;;10.85;89.52;100854.44;5049299;28;20651;-79
2023/12/22 03:12:01;;;;;;;6.93;0.65;;;;;;;10.82;89.63;100843.00;5049335;28;20055;-80
2023/12/22 03:14:29;;;;;;;11.05;0.70;;;;;;;10.83;89.39;100852.66;5048931;28;20029;-79
2023/12/22 03:16:54;;;;;;;6.10;0.52;;;;;;;10.81;89.88;100860.56;5049292;28;20036;-79
2023/12/22 03:19:19;;;;;;;5.33;0.50;;;;;;;10.82;89.83;100856.16;5049354;28;20033;-79
2023/12/22 03:21:45;;;;;;;6.90;0.93;;;;;;;10.81;89.99;100852.69;5048927;28;20036;-80
2023/12/22 03:24:10;;;;;;;7.50;0.97;;;;;;;10.82;89.57;100857.06;5048025;28;20025;-80
2023/12/22 03:26:35;;;;;;;8.35;0.88;;;;;;;10.83;89.72;100853.56;5048794;28;20417;-80
2023/12/22 03:29:01;;;;;;;6.00;0.70;;;;;;;10.85;89.46;100850.91;5048771;28;20049;-79
2023/12/22 03:31:26;;;;;;;9.27;0.80;;;;;;;10.85;89.78;100843.00;5048985;28;20021;-80
2023/12/22 03:33:52;;;;;;;7.03;0.87;;;;;;;10.86;89.38;100848.31;5049243;28;20025;-79
2023/12/22 03:36:17;;;;;;;7.00;0.70;;;;;;;10.89;89.40;100855.34;5048951;28;20033;-78
2023/12/22 03:38:42;;;;;;;5.05;0.40;;;;;;;10.91;89.17;100859.72;5050260;28;20107;-79
2023/12/22 03:41:08;;;;;;;6.07;0.97;;;;;;;10.90;89.80;100855.34;5052920;28;20385;-79
2023/12/22 03:43:34;;;;;;;4.27;0.60;;;;;;;10.89;89.12;100869.38;5052679;28;20033;-78
2023/12/22 03:45:59;;;;;;;9.38;0.90;;;;;;;10.91;89.46;100867.63;5052602;28;20056;-78
2023/12/22 03:48:24;;;;;;;6.37;0.60;;;;;;;10.93;89.17;100872.03;5052583;28;20033;-78
2023/12/22 03:50:50;;;;;;;5.80;0.87;;;;;;;10.91;89.26;100875.53;5052817;28;20025;-80
2023/12/22 03:53:16;;;;;;;7.22;0.80;;;;;;;10.91;89.47;100864.13;5052880;28;20025;-78
2023/12/22 03:55:41;;;;;;;5.80;0.87;;;;;;;10.91;89.45;100875.53;5052664;28;20029;-79
2023/12/22 03:58:07;;;;;;;4.83;0.80;;;;;;;10.91;89.94;100880.81;5052806;28;20401;-79
2023/12/22 04:00:33;;;;;;;4.60;0.60;;;;;;;10.88;89.91;100872.91;5051118;28;20267;-78
2023/12/22 04:02:59;;;;;;;7.70;0.75;;;;;;;10.88;90.19;100869.41;5052387;28;20045;-78
2023/12/22 04:05:24;;;;;;;5.47;0.50;;;;;;;10.87;90.42;100876.41;5052363;28;20029;-79
2023/12/22 04:07:49;;;;;;;4.10;0.47;;;;;;;10.86;90.30;100874.66;5052296;28;20025;-79
2023/12/22 04:10:17;;;;;;;3.75;0.35;;;;;;;10.85;90.33;100869.34;5052488;28;20488;-79
2023/12/22 04:12:43;;;;;;;3.07;0.40;;;;;;;10.85;90.54;100874.63;5052782;28;20025;-78
2023/12/22 04:15:08;;;;;;;6.38;0.50;;;;;;;10.86;90.54;100882.56;5052249;28;20109;-79
2023/12/22 04:17:34;;;;;;;3.20;0.30;;;;;;;10.87;90.56;100884.31;5052822;28;20114;-78
2023/12/22 04:19:59;;;;;;;6.00;0.33;;;;;;;10.87;90.61;100873.78;5052080;28;20021;-79
2023/12/22 04:22:24;;;;;;;3.00;0.30;;;;;;;10.87;90.30;100892.22;5052248;28;20056;-79
2023/12/22 04:24:50;;;;;;;5.37;0.50;;;;;;;10.88;90.36;100886.06;5050736;28;20272;-78
2023/12/22 04:27:15;;;;;;;2.50;0.30;;;;;;;10.88;90.63;100891.34;5031790;28;20085;-79
2023/12/22 04:29:40;;;;;;;2.77;0.30;;;;;;;10.88;90.58;100890.47;5031769;28;20029;-79
2023/12/22 04:32:06;;;;;;;1.57;0.20;;;;;;;10.87;90.45;100883.44;5032162;28;20029;-79
2023/12/22 04:34:31;;;;;;;2.30;0.30;;;;;;;10.85;90.31;100883.44;5032013;28;20034;-79
2023/12/22 04:36:57;;;;;;;4.73;0.33;;;;;;;10.85;90.26;100893.97;5048530;28;20361;-79
2023/12/22 04:39:22;;;;;;;4.03;0.30;;;;;;;10.85;90.73;100879.91;5052094;28;20036;-78
2023/12/22 04:41:47;;;;;;;1.57;0.30;;;;;;;10.87;90.36;100888.72;5051699;28;20067;-79
2023/12/22 04:44:13;;;;;;;1.87;0.30;;;;;;;10.85;90.18;100880.78;5051246;28;20370;-79
2023/12/22 04:46:38;;;;;;;2.22;0.40;;;;;;;10.85;90.08;100880.78;5051650;28;20033;-79
2023/12/22 04:49:03;;;;;;;1.50;0.30;;;;;;;10.84;90.30;100864.97;5051497;28;20063;-79
2023/12/22 04:51:29;;;;;;;2.40;0.40;;;;;;;10.82;90.50;100880.78;5050286;28;20112;-79
2023/12/22 04:53:54;;;;;;;1.97;0.30;;;;;;;10.81;90.48;100873.75;5051663;28;20032;-78
2023/12/22 04:56:20;;;;;;;3.42;0.60;;;;;;;10.79;90.25;100866.69;5051692;28;20450;-79
2023/12/22 04:58:45;;;;;;;1.47;0.27;;;;;;;10.79;90.12;100875.50;5051302;28;20264;-79
2023/12/22 05:01:11;;;;;;;3.97;0.30;;;;;;;10.76;90.57;100879.00;5051614;28;20058;-79
2023/12/22 05:03:36;;;;;;;2.35;0.20;;;;;;;10.74;90.67;100872.84;5051817;28;20056;-78
2023/12/22 05:06:02;;;;;;;1.23;0.20;;;;;;;10.75;90.43;100884.28;5051253;28;20025;-79
2023/12/22 05:08:27;;;;;;;1.37;0.20;;;;;;;10.73;90.26;100880.72;5051393;28;20647;-79
2023/12/22 05:10:53;;;;;;;1.73;0.30;;;;;;;10.71;90.44;100885.09;5051490;28;20029;-79
2023/12/22 05:13:19;;;;;;;1.67;0.20;;;;;;;10.72;90.96;100887.75;5051431;28;20029;-79
2023/12/22 05:15:45;;;;;;;2.67;0.30;;;;;;;10.73;90.46;100889.50;5050821;28;20033;-78
2023/12/22 05:18:11;;;;;;;1.90;0.35;;;;;;;10.74;90.72;100888.63;5051281;28;20025;-79
2023/12/22 05:20:36;;;;;;;1.77;0.30;;;;;;;10.75;90.23;100894.81;5050843;28;20052;-79
2023/12/22 05:23:01;;;;;;;3.10;0.30;;;;;;;10.75;90.86;100885.13;5050976;28;20605;-79
2023/12/22 05:25:28;;;;;;;3.00;0.30;;;;;;;10.76;90.39;100886.03;5049860;28;20488;-78
2023/12/22 05:27:54;;;;;;;3.33;0.30;;;;;;;10.74;91.05;100888.63;5050635;28;20099;-79
2023/12/22 05:30:19;;;;;;;3.17;0.20;;;;;;;10.79;90.79;100890.41;5050585;28;20485;-78
2023/12/22 05:32:45;;;;;;;1.60;0.23;;;;;;;10.79;91.14;100904.47;5050948;28;20036;-78
2023/12/22 05:35:10;;;;;;;3.83;1.10;;;;;;;10.79;90.86;100895.69;5050966;28;20032;-79
2023/12/22 05:37:36;;;;;;;3.88;0.30;;;;;;;10.81;90.65;100910.63;5050797;28;20477;-79
2023/12/22 05:40:02;;;;;;;1.93;0.23;;;;;;;10.83;90.77;100914.16;5050906;28;20485;-78
2023/12/22 05:42:27;;;;;;;3.92;0.32;;;;;;;10.83;90.50;100914.16;5050930;28;20021;-79
2023/12/22 05:44:53;;;;;;;2.37;0.30;;;;;;;10.80;90.90;100919.41;5050209;28;20493;-78
2023/12/22 05:47:18;;;;;;;2.03;0.23;;;;;;;10.81;90.91;100926.44;5050337;28;20039;-78
2023/12/22 05:49:44;;;;;;;1.80;0.22;;;;;;;10.79;90.39;100930.81;5050466;28;20064;-79
2023/12/22 05:52:09;;;;;;;5.13;0.30;;;;;;;10.79;90.73;100927.28;5050588;28;20029;-79
2023/12/22 05:54:35;;;;;;;2.03;0.30;;;;;;;10.78;90.70;100936.97;5050532;28;20033;-79
2023/12/22 05:57:01;;;;;;;2.70;0.30;;;;;;;10.77;90.88;100930.81;5050732;28;20059;-78
2023/12/22 05:59:27;;;;;;;3.40;0.40;;;;;;;10.79;90.32;100932.56;5050218;28;20021;-79
2023/12/22 06:01:56;;;;;;;2.47;0.30;;;;;;;10.78;90.77;100942.25;5049647;28;20029;-79
2023/12/22 06:04:21;;;;;;;2.20;0.20;;;;;;;10.78;91.07;100944.88;5050322;28;20112;-79
2023/12/22 06:06:46;;;;;;;2.47;0.30;;;;;;;10.79;91.15;100954.53;5050188;28;20115;-79
2023/12/22 06:09:12;;;;;;;2.25;0.32;;;;;;;10.81;90.59;100957.16;5050031;28;20404;-79
2023/12/22 06:11:39;;;;;;;3.63;0.50;;;;;;;10.84;91.03;100968.63;5050178;28;20108;-79
2023/12/22 06:14:05;;;;;;;3.58;0.32;;;;;;;10.86;91.06;100966.00;5049995;28;20025;-79
2023/12/22 06:16:31;;;;;;;2.35;0.38;;;;;;;10.88;90.73;100964.25;5049681;28;20435;-79
2023/12/22 06:18:56;;;;;;;2.77;0.40;;;;;;;10.89;90.86;100972.16;5049894;28;20329;-80
2023/12/22 06:21:22;;;;;;;3.45;0.40;;;;;;;10.88;90.52;100959.84;5050050;28;20108;-79
2023/12/22 06:23:47;;;;;;;3.97;0.30;;;;;;;10.91;90.59;100970.41;5048727;28;20473;-79
2023/12/22 06:26:13;;;;;;;3.28;0.55;;;;;;;10.93;90.56;100972.16;5049445;28;20041;-79
2023/12/22 06:28:39;;;;;;;2.40;0.30;;;;;;;10.91;90.53;100970.41;5049805;28;20033;-79
2023/12/22 06:31:18;;;;;;;4.70;0.57;;;;;;;10.92;90.30;100966.03;5049916;28;20036;-79
2023/12/22 06:33:46;;;;;;;2.70;0.50;;;;;;;10.89;91.00;100963.38;5049842;28;20028;-80
2023/12/22 06:36:22;;;;;;;5.53;0.40;;;;;;;10.91;90.77;100964.25;5047629;28;20561;-79
2023/12/22 06:38:49;;;;;;;3.75;0.40;;;;;;;10.89;90.35;100972.16;5039764;28;20087;-79
2023/12/22 06:41:21;;;;;;;4.75;0.50;;;;;;;10.89;90.37;100966.88;5045157;28;20035;-79
2023/12/22 06:43:46;;;;;;;3.33;0.38;;;;;;;10.89;90.88;100966.00;5044149;28;20025;-80
2023/12/22 06:46:19;;;;;;;2.00;0.40;;;;;;;10.90;90.66;100962.50;5048428;28;20098;-79
2023/12/22 06:48:45;;;;;;;2.10;0.32;;;;;;;10.91;90.85;100959.00;5048106;28;20036;-79
2023/12/22 06:51:17;;;;;;;2.40;0.37;;;;;;;10.91;90.49;100961.63;5048206;28;20082;-79
2023/12/22 06:53:43;;;;;;;3.22;0.30;;;;;;;10.91;90.72;100951.97;5048468;28;20120;-79
2023/12/22 06:56:25;;;;;;;1.93;0.20;;;;;;;10.90;90.38;100955.47;5046230;28;20259;-78
2023/12/22 06:58:52;;;;;;;0.90;0.20;;;;;;;10.90;90.35;100966.00;5046618;28;20047;-78
2023/12/22 07:01:23;;;;;;;1.23;0.20;;;;;;;10.93;90.42;100969.53;5046912;28;20842;-78
2023/12/22 07:03:50;;;;;;;1.83;0.20;;;;;;;10.95;90.42;100970.41;5040160;28;20503;-78
2023/12/22 07:06:20;;;;;;;1.83;0.28;;;;;;;10.94;90.78;100960.75;5048357;28;20104;-79
2023/12/22 07:08:58;;;;;;;1.43;0.20;;;;;;;10.95;90.53;100959.88;5048251;28;20455;-79
2023/12/22 07:11:23;;;;;;;1.50;0.30;;;;;;;10.94;90.63;100969.56;5047769;28;20021;-78
2023/12/22 07:13:49;;;;;;;2.47;0.30;;;;;;;10.94;90.69;100969.56;5044820;28;20021;-78
2023/12/22 07:16:16;;;;;;;3.17;0.40;;;;;;;10.96;90.75;100969.53;5051528;28;20025;-79
2023/12/22 07:18:41;;;;;;;4.28;0.50;;;;;;;10.95;90.83;100965.16;5052874;28;20044;-79
2023/12/22 07:21:07;;;;;;;2.20;0.30;;;;;;;10.99;90.80;100961.69;5052337;28;20553;-79
2023/12/22 07:23:32;;;;;;;2.83;0.37;;;;;;;10.99;90.54;100966.94;5051902;28;20025;-80
2023/12/22 07:25:58;;;;;;;2.85;0.38;;;;;;;11.00;90.38;100964.31;5052084;28;20558;-78
2023/12/22 07:28:23;;;;;;;2.07;0.40;;;;;;;11.00;90.12;100973.97;5052355;28;20036;-78
2023/12/22 07:30:49;;;;;;;2.47;0.30;;;;;;;11.01;90.34;100967.84;5052504;28;20641;-80
2023/12/22 07:33:14;;;;;;;2.42;0.38;;;;;;;11.03;89.90;100972.22;5050593;28;20084;-78
2023/12/22 07:35:40;;;;;;;2.97;0.40;;;;;;;11.04;89.94;100976.63;5051260;28;20036;-78
2023/12/22 07:38:05;;;;;;;2.47;0.40;;;;;;;11.05;89.69;100988.06;5047229;28;20394;-80
2023/12/22 07:40:30;;;;;;;2.30;0.30;;;;;;;11.06;89.90;100992.47;5051071;28;20020;-79
2023/12/22 07:42:57;;;;;;;3.70;0.50;;;;;;;11.06;89.69;100987.19;5050309;28;20622;-78
2023/12/22 07:45:22;;;;;;;3.00;0.37;;;;;;;11.05;89.69;100988.06;5052268;28;20036;-79
2023/12/22 07:47:48;;;;;;;5.82;0.45;;;;;;;11.08;89.61;100998.63;5052426;28;20029;-77
2023/12/22 07:50:13;;;;;;;2.17;0.30;;;;;;;11.07;89.85;100996.84;5052522;28;20029;-78
2023/12/22 07:52:39;;;;;;;1.75;0.40;;;;;;;11.06;90.14;100990.69;5052717;28;20029;-78
2023/12/22 07:55:10;;;;;;;2.47;0.30;;;;;;;11.09;89.75;101000.38;5052891;28;20037;-79
2023/12/22 07:57:36;;;;;;;2.35;0.30;;;;;;;11.09;89.74;101005.66;5051269;28;20035;-80
2023/12/22 08:00:03;;;;;;;2.97;0.60;;;;;;;11.11;90.02;101003.03;5052401;28;20033;-79
2023/12/22 08:02:28;;;;;;;2.15;0.40;;;;;;;11.11;89.69;101013.59;5052639;28;20067;-79
2023/12/22 08:04:53;;;;;;;4.77;0.40;;;;;;;11.13;89.76;101011.84;5052039;28;20053;-79
2023/12/22 08:07:19;;;;;;;4.63;0.40;;;;;;;11.13;89.41;101019.75;5052569;28;20474;-78
2023/12/22 08:09:44;;;;;;;4.33;0.67;;;;;;;11.14;89.78;101019.72;5052814;28;20036;-78
2023/12/22 08:12:10;;;;;;;3.60;0.30;;;;;;;11.14;89.78;101014.47;5052597;28;20032;-79
2023/12/22 08:14:35;;;;;;;4.73;0.50;;;;;;;11.16;89.60;101017.97;5051941;28;20116;-79
2023/12/22 08:17:00;;;;;;;2.70;0.40;;;;;;;11.16;89.02;101020.63;5052277;28;20582;-78
2023/12/22 08:19:26;;;;;;;2.22;0.40;;;;;;;11.18;89.11;101026.78;5052335;28;20056;-78
2023/12/22 08:21:54;;;;;;;3.40;0.40;;;;;;;11.22;89.13;101026.81;5052434;28;20485;-78
2023/12/22 08:24:20;;;;;;;3.75;0.63;;;;;;;11.22;89.22;101026.81;5050338;28;20021;-79
2023/12/22 08:26:45;;;;;;;2.93;0.30;;;;;;;11.20;89.06;101029.44;5052026;28;20048;-78
2023/12/22 08:29:11;;;;;;;4.67;0.50;;;;;;;11.22;89.25;101032.97;5052211;28;20029;-79
2023/12/22 08:31:36;;;;;;;4.27;0.47;;;;;;;11.19;89.25;101033.81;5051175;28;20397;-80
2023/12/22 08:34:02;;;;;;;3.00;0.50;;;;;;;11.21;89.80;101036.47;5051996;28;20327;-80
2023/12/22 08:36:27;;;;;;;3.87;0.50;;;;;;;11.22;89.59;101040.88;5052215;28;20025;-78
2023/12/22 08:38:52;;;;;;;3.40;0.60;;;;;;;11.24;89.61;101036.50;5051749;28;20536;-79
2023/12/22 08:41:18;;;;;;;4.27;0.47;;;;;;;11.23;89.98;101039.13;5050983;28;20033;-78
2023/12/22 08:43:43;;;;;;;2.47;0.40;;;;;;;11.27;89.84;101040.91;5046476;28;20017;-79
2023/12/22 08:46:09;;;;;;;2.67;0.40;;;;;;;11.25;90.05;101047.94;5050887;28;20661;-78
2023/12/22 08:48:35;;;;;;;1.90;0.32;;;;;;;11.26;90.29;101055.84;5050134;28;20044;-77
2023/12/22 08:51:00;;;;;;;3.00;0.47;;;;;;;11.27;89.86;101051.47;5052101;28;20059;-81
2023/12/22 08:53:29;;;;;;;3.50;0.50;;;;;;;11.27;90.04;101051.47;5051436;28;20401;-78
2023/12/22 08:55:56;;;;;;;2.90;0.50;;;;;;;11.28;90.74;101048.81;5051843;28;20029;-79
2023/12/22 08:58:21;;;;;;;3.05;0.40;;;;;;;11.31;90.28;101048.81;5050612;28;20032;-80
2023/12/22 09:00:47;;;;;;;2.78;0.50;;;;;;;11.31;90.53;101054.09;5050755;28;20029;-77
2023/12/22 09:03:12;;;;;;;3.63;0.57;;;;;;;11.34;90.27;101061.16;5051319;28;20021;-79
2023/12/22 09:05:38;;;;;;;3.43;0.40;;;;;;;11.37;90.00;101069.06;5051227;28;20420;-79
2023/12/22 09:08:04;;;;;;;2.47;0.37;;;;;;;11.39;90.43;101064.69;5049703;28;20063;-76
2023/12/22 09:10:29;;;;;;;1.85;0.30;;;;;;;11.42;89.73;101069.97;5049271;28;20033;-78
2023/12/22 09:12:54;;;;;;;1.70;0.23;;;;;;;11.46;89.80;101060.34;5045868;28;20072;-79
2023/12/22 09:15:20;;;;;;;2.67;0.40;;;;;;;11.47;89.71;101067.38;5045484;28;20028;-77
2023/12/22 09:17:45;;;;;;;1.98;0.30;;;;;;;11.53;89.32;101069.16;5049301;28;20063;-81
2023/12/22 09:20:14;;;;;;;2.80;0.40;;;;;;;11.58;89.54;101072.72;5050282;28;20151;-76
2023/12/22 09:22:39;;;;;;;1.73;0.30;;;;;;;11.61;89.24;101073.63;5044948;28;20078;-79
2023/12/22 09:25:05;;;;;;;1.93;0.30;;;;;;;11.61;89.13;101068.34;5050256;28;20123;-80
2023/12/22 09:27:31;;;;;;;1.73;0.30;;;;;;;11.62;89.23;101070.09;5049631;28;20098;-80
2023/12/22 09:29:56;;;;;;;2.25;0.40;;;;;;;11.62;89.14;101058.66;5050409;28;20536;-80
2023/12/22 09:32:22;;;;;;;2.13;0.30;;;;;;;11.68;88.83;101069.22;5050340;28;20033;-80
2023/12/22 09:34:47;;;;;;;2.43;0.43;;;;;;;11.70;88.99;101066.59;5050314;28;20035;-80
2023/12/22 09:37:14;;;;;;;2.08;0.60;;;;;;;11.72;88.69;101065.75;5048963;28;20024;-79
2023/12/22 09:39:39;;;;;;;2.55;0.32;;;;;;;11.70;88.74;101064.84;5049839;28;20039;-80
2023/12/22 09:42:05;;;;;;;2.20;0.30;;;;;;;11.72;88.64;101076.31;5049453;28;20060;-80
2023/12/22 09:44:33;;;;;;;1.90;0.32;;;;;;;11.72;88.74;101065.75;5049602;28;20052;-80
2023/12/22 09:47:00;;;;;;;1.83;0.30;;;;;;;11.74;89.28;101069.28;5050529;28;20527;-81
2023/12/22 09:49:26;;;;;;;1.30;0.30;;;;;;;11.74;89.01;101069.28;5050525;28;20025;-82
2023/12/22 09:51:54;;;;;;;1.80;0.40;;;;;;;11.73;89.04;101067.50;5049675;28;20493;-82
2023/12/22 09:54:19;;;;;;;1.20;0.20;;;;;;;11.72;89.40;101081.56;5049690;28;20061;-83
2023/12/22 09:56:46;;;;;;;1.43;0.27;;;;;;;11.72;89.44;101086.84;5049172;28;20064;-83
2023/12/22 09:59:13;;;;;;;2.83;0.43;;;;;;;11.71;89.21;101081.56;5049234;28;20040;-83
2023/12/22 10:01:50;;;;;;;3.70;0.40;;;;;;;11.69;89.44;101084.19;5048647;28;20040;-82
2023/12/22 10:04:16;;;;;;;3.63;0.52;;;;;;;11.72;89.12;101086.84;5050106;28;20055;-83
2023/12/22 10:06:42;;;;;;;1.90;0.40;;;;;;;11.72;89.79;101092.13;5050244;28;20482;-75
2023/12/22 10:09:08;;;;;;;2.08;0.30;;;;;;;11.70;89.55;101095.63;5049392;28;20095;-76
2023/12/22 10:11:36;;;;;;;2.67;0.50;;;;;;;11.68;89.76;101103.53;5048766;28;20059;-75
2023/12/22 10:14:02;;;;;;;1.58;0.30;;;;;;;11.69;89.97;101104.41;5048734;28;20481;-79
2023/12/22 10:16:28;;;;;;;2.83;0.30;;;;;;;11.69;89.54;101102.66;5048724;28;20028;-76
2023/12/22 10:18:54;;;;;;;2.05;0.30;;;;;;;11.69;89.61;101102.66;5049129;28;20518;-77
2023/12/22 10:21:19;;;;;;;3.27;0.40;;;;;;;11.71;89.80;101090.38;5048950;28;20102;-81
2023/12/22 10:23:44;;;;;;;3.03;0.52;;;;;;;11.74;89.38;101090.38;5049014;28;20028;-76
2023/12/22 10:26:13;;;;;;;2.13;0.30;;;;;;;11.76;89.20;101093.91;5049444;28;20521;-78
2023/12/22 10:28:38;;;;;;;3.63;0.50;;;;;;;11.77;88.98;101082.47;5049308;28;20024;-84
2023/12/22 10:31:06;;;;;;;3.13;0.60;;;;;;;11.83;89.21;101086.00;5048846;28;20059;-81
2023/12/22 10:33:32;;;;;;;2.83;0.40;;;;;;;11.88;89.19;101089.53;5048744;28;20025;-79
2023/12/22 10:35:59;;;;;;;3.08;0.40;;;;;;;11.92;89.31;101083.38;5046958;28;20519;-79
2023/12/22 10:38:25;;;;;;;2.77;0.40;;;;;;;11.95;89.04;101088.72;5048329;28;20496;-84
2023/12/22 10:40:51;;;;;;;2.25;0.40;;;;;;;11.96;88.94;101085.19;5049033;28;20028;-81
2023/12/22 10:43:17;;;;;;;2.60;0.40;;;;;;;11.99;88.86;101087.84;5048750;28;20033;-82
2023/12/22 10:45:42;;;;;;;2.73;0.40;;;;;;;11.98;89.14;101078.16;5048496;28;20128;-80
2023/12/22 10:48:10;;;;;;;2.50;0.60;;;;;;;11.99;89.26;101074.63;5048862;28;20112;-80
2023/12/22 10:50:35;;;;;;;3.30;0.63;;;;;;;12.01;88.96;101072.91;5048859;28;20036;-83
2023/12/22 10:53:01;;;;;;;2.27;0.30;;;;;;;12.02;89.08;101073.78;5048435;28;20507;-83
2023/12/22 10:55:26;;;;;;;3.58;0.50;;;;;;;12.03;89.33;101073.78;5048301;28;20481;-81
2023/12/22 10:57:53;;;;;;;4.47;0.70;;;;;;;12.03;89.25;101065.88;5048644;28;20037;-78
2023/12/22 11:00:21;;;;;;;6.00;0.90;;;;;;;12.07;89.19;101064.13;5047950;28;20029;-81
2023/12/22 11:02:52;;;;;;;3.17;0.40;;;;;;;12.08;88.99;101057.09;5048724;28;20037;-79
2023/12/22 11:05:20;;;;;;;3.03;0.50;;;;;;;12.10;88.92;101052.69;5043546;28;20619;-79
2023/12/22 11:07:49;;;;;;;1.83;0.30;;;;;;;12.08;88.61;101046.53;5047399;28;20029;-78
2023/12/22 11:10:20;;;;;;;3.08;0.50;;;;;;;12.08;88.74;101051.81;5045575;28;20041;-76
2023/12/22 11:12:46;;;;;;;4.55;0.50;;;;;;;12.11;88.77;101054.44;5043117;28;20098;-77
2023/12/22 11:15:14;;;;;;;2.58;0.50;;;;;;;12.06;88.32;101047.41;5046212;28;20052;-78
2023/12/22 11:17:42;;;;;;;3.05;0.47;;;;;;;12.08;88.41;101046.53;5046638;28;20029;-78
2023/12/22 11:20:13;;;;;;;2.57;0.50;;;;;;;12.05;88.79;101037.72;5049072;28;20029;-79